イスラマバード の空港の天気 - METARとTAF

イスラマバード国際空港 ( OPRN / ISB ) - パキスタン Islamabad
飛行場実況気象(Metar)
観測時間12/10 10:00 PKT (12/10 05:00 UTC)
風向・風速南東 6m/s
視程1800m
天気現象
全天の4割程度の雲 雲底高度 300m
少しの雲 雲底高度 760m
全天の4割程度の雲 雲底高度 910m
全天の8割程度の雲 雲底高度 2440m
気温11℃
湿度87%
気圧1018hPa
METAROPRN 100500Z 13012KT 1800 RA SCT010 FEW025TCU SCT030 BKN080 11/09 Q1018 TEMPO 1500 TSRA SCT010 FEW020TCU/CB BKN030 OVC080 RMK A3006
過去の天気等 Google飛行場航空写真 Wunderground天気予報

過去48時間のMETAR

飛行場予報(TAF)
発表時間: 12/10 02:30 PKT (12/09 21:30 UTC)
予報対象時間: 10日5時 PKT ~ 11日11時 PKT
風向・風速南東 5m/s
視程3000m
天気現象
少しの塔状積雲 雲底高度 610m
全天の4割程度の雲 雲底高度 910m
全天の8割程度の雲 雲底高度 2740m
10日14時 PKT ~ 10日16時 PKT に徐々に
視程4000m
11日7時 PKT ~ 11日10時 PKT に一時的に
視程1000m
天気現象もや
TAF OPRN 092130Z 1000/1106 13010KT 3000 RA FEW020TCU SCT030 BKN090
BECMG 1009/1011 4000 HZSCT040 BKN100
TEMPO 1102/1105 1000 BR